createdAt,value
2023-01-04T00:00:10.284Z,37.4680
2023-01-04T00:00:21.443Z,37.5150
2023-01-04T00:00:32.628Z,37.5210
2023-01-04T00:00:43.805Z,37.5320
2023-01-04T00:00:55.001Z,37.5740
2023-01-04T00:01:06.164Z,37.5910
2023-01-04T00:01:17.350Z,37.6250
2023-01-04T00:01:28.571Z,37.6370
2023-01-04T00:01:39.747Z,37.6370
2023-01-04T00:01:50.952Z,37.6140
2023-01-04T00:02:02.283Z,37.6140
2023-01-04T00:02:13.522Z,37.6140
2023-01-04T00:02:24.747Z,37.6140
2023-01-04T00:02:36.051Z,37.6250
2023-01-04T00:02:47.459Z,37.6490
2023-01-04T00:02:58.689Z,37.6370
2023-01-04T00:03:10.015Z,37.6550
2023-01-04T00:03:21.405Z,37.6550
2023-01-04T00:03:32.897Z,37.6720
2023-01-04T00:03:44.510Z,37.6660
2023-01-04T00:03:55.981Z,37.6460
2023-01-04T00:04:07.265Z,37.6230
2023-01-04T00:04:18.485Z,37.6310
2023-01-04T00:04:29.678Z,37.6310
2023-01-04T00:04:40.872Z,37.6140
2023-01-04T00:04:52.075Z,37.5740
2023-01-04T00:05:03.292Z,37.5500
2023-01-04T00:05:14.346Z,37.5320
2023-01-04T00:05:25.413Z,37.5100
2023-01-04T00:05:36.493Z,37.4870
2023-01-04T00:05:47.563Z,37.4770
2023-01-04T00:05:58.644Z,37.4490
2023-01-04T00:06:09.832Z,37.4360
2023-01-04T00:06:20.898Z,37.4240
2023-01-04T00:06:31.980Z,37.4010
2023-01-04T00:06:43.112Z,37.4070
2023-01-04T00:06:54.152Z,37.3950
2023-01-04T00:07:05.225Z,37.3900
2023-01-04T00:07:16.395Z,37.3900
2023-01-04T00:07:27.438Z,37.3780
2023-01-04T00:07:38.503Z,37.3730
2023-01-04T00:07:49.669Z,37.3730
2023-01-04T00:08:00.740Z,37.3840
2023-01-04T00:08:11.790Z,37.3780
2023-01-04T00:08:22.953Z,37.3900
2023-01-04T00:08:34.026Z,37.4010
2023-01-04T00:08:45.116Z,37.3900
2023-01-04T00:08:56.262Z,37.3950
2023-01-04T00:09:07.449Z,37.3780
2023-01-04T00:09:18.628Z,37.3730
2023-01-04T00:09:29.834Z,37.3370
2023-01-04T00:09:40.892Z,37.3200
2023-01-04T00:09:52.007Z,37.2860
2023-01-04T00:10:03.109Z,37.2560
2023-01-04T00:10:14.177Z,37.2220
2023-01-04T00:10:25.251Z,37.2110
2023-01-04T00:10:36.392Z,37.2160
2023-01-04T00:10:47.458Z,37.2050
2023-01-04T00:10:58.528Z,37.1690
2023-01-04T00:11:09.666Z,37.1410
2023-01-04T00:11:20.894Z,37.1300
2023-01-04T00:11:32.082Z,37.1070
2023-01-04T00:11:43.162Z,37.0880
2023-01-04T00:11:54.217Z,37.0430
2023-01-04T00:12:05.351Z,37.0070
2023-01-04T00:12:16.543Z,36.9900
2023-01-04T00:12:27.751Z,36.9510
2023-01-04T00:12:38.951Z,36.9210
2023-01-04T00:12:50.161Z,36.9150
2023-01-04T00:13:01.347Z,36.8760
2023-01-04T00:13:12.549Z,36.8360
2023-01-04T00:13:23.757Z,36.8230
2023-01-04T00:13:34.950Z,36.8060
2023-01-04T00:13:46.018Z,36.8120
2023-01-04T00:13:57.113Z,36.7950
2023-01-04T00:14:08.227Z,36.7890
2023-01-04T00:14:19.431Z,36.7720
2023-01-04T00:14:30.622Z,36.7500
2023-01-04T00:14:41.853Z,36.7200
2023-01-04T00:14:53.027Z,36.6500
2023-01-04T00:15:04.138Z,36.6750
2023-01-04T00:15:15.212Z,36.6970
2023-01-04T00:15:26.545Z,36.6800
2023-01-04T00:15:37.902Z,36.6750
2023-01-04T00:15:49.120Z,36.5880
2023-01-04T00:16:07.357Z,36.5640
2023-01-04T00:16:17.280Z,36.7200
2023-01-04T00:16:28.642Z,36.5880
2023-01-04T00:16:40.034Z,36.5070
2023-01-04T00:16:51.285Z,36.4720
2023-01-04T00:17:02.354Z,36.4270
2023-01-04T00:17:13.509Z,36.3740
2023-01-04T00:17:24.710Z,36.3400
2023-01-04T00:17:35.779Z,36.3450
2023-01-04T00:17:46.841Z,36.3680
2023-01-04T00:17:57.900Z,36.3340
2023-01-04T00:18:09.000Z,36.3400
2023-01-04T00:18:20.061Z,36.3160
2023-01-04T00:18:31.119Z,36.2820
2023-01-04T00:18:42.205Z,36.2590
2023-01-04T00:18:53.242Z,36.2590
2023-01-04T00:19:04.334Z,36.2530
2023-01-04T00:19:15.431Z,36.2870
2023-01-04T00:19:26.621Z,36.2650
2023-01-04T00:19:37.834Z,36.2530
2023-01-04T00:19:49.041Z,36.2370
2023-01-04T00:20:00.234Z,36.2490
2023-01-04T00:20:11.309Z,36.2190
2023-01-04T00:20:22.399Z,36.2320
2023-01-04T00:20:33.517Z,36.2320
2023-01-04T00:20:44.715Z,36.1790
2023-01-04T00:20:55.912Z,36.1790
2023-01-04T00:21:07.114Z,36.1550
2023-01-04T00:21:18.198Z,36.1320
2023-01-04T00:21:29.253Z,36.1150
2023-01-04T00:21:40.400Z,36.0650
2023-01-04T00:21:51.599Z,36.0460
2023-01-04T00:22:02.796Z,36.0760
2023-01-04T00:22:14.001Z,36.0710
2023-01-04T00:22:25.193Z,36.0590
2023-01-04T00:22:36.395Z,36.0300
2023-01-04T00:22:47.586Z,36.0410
2023-01-04T00:22:58.798Z,36.0500
2023-01-04T00:23:10.000Z,36.0560
2023-01-04T00:23:21.072Z,36.0450
2023-01-04T00:23:32.131Z,36.0500
2023-01-04T00:23:43.178Z,36.0500
2023-01-04T00:23:54.229Z,35.9810
2023-01-04T00:24:05.379Z,35.9700
2023-01-04T00:24:16.540Z,35.9250
2023-01-04T00:24:27.619Z,35.9180
2023-01-04T00:24:38.697Z,35.8570
2023-01-04T00:24:49.838Z,35.8570
2023-01-04T00:25:01.027Z,35.9270
2023-01-04T00:25:12.234Z,35.9590
2023-01-04T00:25:23.440Z,35.9870
2023-01-04T00:25:34.629Z,35.9760
2023-01-04T00:25:45.821Z,35.9060
2023-01-04T00:25:57.031Z,35.9010
2023-01-04T00:26:08.222Z,35.8440
2023-01-04T00:26:19.432Z,35.7180
2023-01-04T00:26:30.504Z,35.7160
2023-01-04T00:26:41.581Z,35.7960
2023-01-04T00:26:52.710Z,35.8940
2023-01-04T00:27:03.753Z,35.9330
2023-01-04T00:27:14.817Z,35.8990
2023-01-04T00:27:25.990Z,35.8530
2023-01-04T00:27:37.058Z,35.8240
2023-01-04T00:27:48.138Z,35.7960
2023-01-04T00:27:59.271Z,35.8080
2023-01-04T00:28:10.342Z,35.8300
2023-01-04T00:28:21.411Z,35.8410
2023-01-04T00:28:32.558Z,35.8300
2023-01-04T00:28:48.356Z,35.7550
2023-01-04T00:29:00.730Z,35.8940
2023-01-04T00:29:11.812Z,35.8560
2023-01-04T00:29:22.893Z,35.7990
2023-01-04T00:29:33.953Z,35.7480
2023-01-04T00:29:45.218Z,35.6960
2023-01-04T00:29:56.388Z,35.6790
2023-01-04T00:30:07.597Z,35.6850
2023-01-04T00:30:18.651Z,35.6560
2023-01-04T00:30:29.731Z,35.6900
2023-01-04T00:30:40.875Z,35.6960
2023-01-04T00:30:51.922Z,35.6560
2023-01-04T00:31:03.077Z,35.6440
2023-01-04T00:31:14.196Z,35.6330
2023-01-04T00:31:25.464Z,35.6360
2023-01-04T00:31:36.583Z,35.6300
2023-01-04T00:31:47.845Z,35.6300
2023-01-04T00:31:59.021Z,35.6190
2023-01-04T00:32:10.149Z,35.6060
2023-01-04T00:32:21.343Z,35.5840
2023-01-04T00:32:32.546Z,35.5720
2023-01-04T00:32:43.754Z,35.5440
2023-01-04T00:32:54.811Z,35.5030
2023-01-04T00:33:05.887Z,35.5200
2023-01-04T00:33:17.063Z,35.5200
2023-01-04T00:33:28.111Z,35.5610
2023-01-04T00:33:39.164Z,35.5670
2023-01-04T00:33:50.310Z,35.5990
2023-01-04T00:34:01.378Z,35.5760
2023-01-04T00:34:12.471Z,35.5820
2023-01-04T00:34:23.620Z,35.5820
2023-01-04T00:34:34.667Z,35.5650
2023-01-04T00:34:45.732Z,35.5070
2023-01-04T00:34:56.866Z,35.5820
2023-01-04T00:35:07.951Z,35.6440
2023-01-04T00:35:44.133Z,35.6680
2023-01-04T00:35:45.627Z,35.7870
2023-01-04T00:35:52.922Z,35.8880
2023-01-04T00:36:04.098Z,35.8250
2023-01-04T00:36:15.271Z,35.7390
2023-01-04T00:36:26.466Z,35.6530
2023-01-04T00:36:37.672Z,35.5280
2023-01-04T00:36:48.871Z,35.5220
2023-01-04T00:37:00.100Z,35.5280
2023-01-04T00:37:11.170Z,35.5760
2023-01-04T00:37:22.242Z,35.6330
2023-01-04T00:37:33.347Z,35.5760
2023-01-04T00:37:48.343Z,35.4790
2023-01-04T00:38:01.516Z,35.5880
2023-01-04T00:38:12.624Z,35.5390
2023-01-04T00:38:23.666Z,35.4380
2023-01-04T00:38:34.723Z,35.4050
2023-01-04T00:38:45.776Z,35.4270
2023-01-04T00:38:56.879Z,35.4160
2023-01-04T00:39:08.905Z,35.3640
2023-01-04T00:39:20.330Z,35.3990
2023-01-04T00:39:31.426Z,35.3810
2023-01-04T00:39:42.471Z,35.3090
2023-01-04T00:39:53.529Z,35.2220
2023-01-04T00:40:04.716Z,35.2130
2023-01-04T00:40:15.901Z,35.2560
2023-01-04T00:40:27.111Z,35.2700
2023-01-04T00:40:38.314Z,35.2760
2023-01-04T00:40:49.397Z,35.2240
2023-01-04T00:41:00.466Z,35.1720
2023-01-04T00:41:28.267Z,35.1660
2023-01-04T00:41:57.633Z,35.2810
2023-01-04T00:42:01.713Z,35.4850
2023-01-04T00:42:02.492Z,35.4650
2023-01-04T00:42:13.527Z,35.3680
2023-01-04T00:42:24.586Z,35.3450
2023-01-04T00:42:35.672Z,35.3300
2023-01-04T00:42:46.707Z,35.2730
2023-01-04T00:42:57.839Z,35.2580
2023-01-04T00:43:09.039Z,35.2460
2023-01-04T00:43:20.099Z,35.2460
2023-01-04T00:43:31.192Z,35.2290
2023-01-04T00:43:42.321Z,35.2070
2023-01-04T00:43:53.522Z,35.1720
2023-01-04T00:44:04.728Z,35.1440
2023-01-04T00:44:15.907Z,35.1100
2023-01-04T00:44:27.138Z,35.1010
2023-01-04T00:44:38.313Z,35.1290
2023-01-04T00:44:49.534Z,35.1270
2023-01-04T00:45:00.707Z,35.0810
2023-01-04T00:45:11.913Z,35.0860
2023-01-04T00:45:22.974Z,35.1100
2023-01-04T00:45:34.057Z,35.1290
2023-01-04T00:45:45.378Z,35.0410
2023-01-04T00:45:56.811Z,35.0300
2023-01-04T00:46:07.960Z,34.9840
2023-01-04T00:46:19.155Z,35.0190
2023-01-04T00:46:30.337Z,35.1040
2023-01-04T00:46:41.495Z,35.1100
2023-01-04T00:46:52.844Z,35.0810
2023-01-04T00:47:03.980Z,35.0360
2023-01-04T00:47:15.131Z,35.0530
2023-01-04T00:47:26.310Z,35.1210
2023-01-04T00:47:37.387Z,35.1100
2023-01-04T00:47:48.441Z,35.0410
2023-01-04T00:47:59.517Z,35.0010
2023-01-04T00:48:10.597Z,34.9950
2023-01-04T00:48:21.675Z,34.9950
2023-01-04T00:48:35.380Z,35.0190
2023-01-04T00:48:50.912Z,35.2240
2023-01-04T00:49:03.963Z,35.2130
2023-01-04T00:49:15.108Z,35.0890
2023-01-04T00:49:26.314Z,35.0100
2023-01-04T00:49:37.407Z,35.0160
2023-01-04T00:49:48.456Z,35.0160
2023-01-04T00:49:59.588Z,34.9190
2023-01-04T00:50:10.786Z,34.8510
2023-01-04T00:50:21.993Z,34.8390
2023-01-04T00:50:33.104Z,34.9140
2023-01-04T00:50:44.185Z,34.9880
2023-01-04T00:50:55.290Z,34.9710
2023-01-04T00:51:06.347Z,34.9580
2023-01-04T00:51:17.416Z,34.9420
2023-01-04T00:51:28.559Z,34.8910
2023-01-04T00:51:39.747Z,34.8510
2023-01-04T00:51:50.948Z,34.8340
2023-01-04T00:52:02.166Z,34.8670
2023-01-04T00:52:13.351Z,34.9020
2023-01-04T00:52:24.552Z,34.9790
2023-01-04T00:52:35.688Z,35.0090
2023-01-04T00:52:46.732Z,35.0370
2023-01-04T00:52:57.780Z,35.0200
2023-01-04T00:53:08.838Z,34.9970
2023-01-04T00:53:19.891Z,34.9850
2023-01-04T00:53:31.113Z,35.0140
2023-01-04T00:53:42.176Z,34.9730
2023-01-04T00:53:53.240Z,34.9510
2023-01-04T00:54:04.390Z,34.9170
2023-01-04T00:54:15.591Z,34.9400
2023-01-04T00:54:26.629Z,34.9170
2023-01-04T00:54:37.724Z,34.8560
2023-01-04T00:54:48.880Z,34.7650
2023-01-04T00:55:00.116Z,34.7370
2023-01-04T00:55:11.281Z,34.7260
2023-01-04T00:55:22.472Z,34.7370
2023-01-04T00:55:33.560Z,34.7570
2023-01-04T00:55:44.626Z,34.7740
2023-01-04T00:55:55.747Z,34.7280
2023-01-04T00:56:06.961Z,34.6830
2023-01-04T00:56:18.191Z,34.7110
2023-01-04T00:56:29.351Z,34.6680
2023-01-04T00:56:40.436Z,34.6220
2023-01-04T00:56:51.554Z,34.6510
2023-01-04T00:57:02.648Z,34.6730
2023-01-04T00:57:13.828Z,34.5980
2023-01-04T00:57:25.033Z,34.6480
2023-01-04T00:57:36.230Z,34.7280
2023-01-04T00:57:47.272Z,34.7800
2023-01-04T00:57:58.327Z,34.8070
2023-01-04T00:58:09.515Z,34.8020
2023-01-04T00:58:20.698Z,34.7850
2023-01-04T00:58:31.912Z,34.7500
2023-01-04T00:58:43.105Z,34.7960
2023-01-04T00:58:54.319Z,34.8510
2023-01-04T00:59:05.509Z,34.8820
2023-01-04T00:59:16.736Z,34.8430
2023-01-04T00:59:27.926Z,34.7910
2023-01-04T00:59:39.001Z,34.7500
2023-01-04T00:59:50.056Z,34.7110
2023-01-04T01:00:01.228Z,34.6940
2023-01-04T01:00:12.387Z,34.6940
2023-01-04T01:00:23.429Z,34.6880
2023-01-04T01:00:34.471Z,34.6650
2023-01-04T01:00:45.541Z,34.5800
2023-01-04T01:00:56.601Z,34.5230
2023-01-04T01:01:07.862Z,34.5350
2023-01-04T01:01:19.083Z,34.6200
2023-01-04T01:01:30.333Z,34.7220
2023-01-04T01:01:41.519Z,34.7440
2023-01-04T01:01:52.873Z,34.7390
2023-01-04T01:02:04.197Z,34.7800
2023-01-04T01:02:15.514Z,34.8510
2023-01-04T01:02:27.122Z,34.8510
2023-01-04T01:02:38.585Z,34.8000
2023-01-04T01:02:50.175Z,34.7430
2023-01-04T01:03:01.885Z,34.7650
2023-01-04T01:03:13.351Z,34.8770
2023-01-04T01:03:24.607Z,34.7860
2023-01-04T01:03:38.733Z,34.7410
2023-01-04T01:03:50.094Z,34.8200
2023-01-04T01:04:01.293Z,34.7340
2023-01-04T01:04:12.565Z,34.6840
2023-01-04T01:04:24.139Z,34.7000
2023-01-04T01:04:35.469Z,34.7470
2023-01-04T01:04:46.772Z,34.6260
2023-01-04T01:04:57.829Z,34.5200
2023-01-04T01:05:09.031Z,34.5780
2023-01-04T01:05:20.235Z,34.6780
2023-01-04T01:05:31.427Z,34.6210
2023-01-04T01:05:42.630Z,34.5020
2023-01-04T01:05:53.860Z,34.4110
2023-01-04T01:06:05.031Z,34.4130
2023-01-04T01:06:16.220Z,34.4590
2023-01-04T01:06:27.432Z,34.4650
2023-01-04T01:06:38.627Z,34.5040
2023-01-04T01:06:49.857Z,34.5040
2023-01-04T01:07:00.910Z,34.4870
2023-01-04T01:07:11.980Z,34.4650
2023-01-04T01:07:23.111Z,34.4180
2023-01-04T01:07:34.147Z,34.4130
2023-01-04T01:07:45.204Z,34.4020
2023-01-04T01:07:56.390Z,34.4130
2023-01-04T01:08:07.462Z,34.4760
2023-01-04T01:08:18.550Z,34.5390
2023-01-04T01:08:29.671Z,34.5290
2023-01-04T01:08:40.717Z,34.5920
2023-01-04T01:08:51.795Z,34.5980
2023-01-04T01:09:02.950Z,34.6030
2023-01-04T01:09:13.991Z,34.5680
2023-01-04T01:09:25.031Z,34.5630
2023-01-04T01:09:36.236Z,34.5860
2023-01-04T01:09:47.474Z,34.5180
2023-01-04T01:09:58.627Z,34.4720
2023-01-04T01:10:09.837Z,34.4830
2023-01-04T01:10:21.031Z,34.5290
2023-01-04T01:10:32.231Z,34.4160
2023-01-04T01:10:43.299Z,34.4030
2023-01-04T01:10:54.345Z,34.4090
2023-01-04T01:11:05.396Z,34.3700
2023-01-04T01:11:16.471Z,34.3420
2023-01-04T01:11:27.586Z,34.4160
2023-01-04T01:11:38.791Z,34.4760
2023-01-04T01:11:49.990Z,34.4410
2023-01-04T01:12:01.101Z,34.4410
2023-01-04T01:12:12.184Z,34.5090
2023-01-04T01:12:23.238Z,34.5200
2023-01-04T01:12:34.293Z,34.4890
2023-01-04T01:12:45.363Z,34.4440
2023-01-04T01:12:56.448Z,34.3560
2023-01-04T01:13:07.639Z,34.3390
2023-01-04T01:13:18.857Z,34.3610
2023-01-04T01:13:30.062Z,34.4240
2023-01-04T01:13:41.162Z,34.4700
2023-01-04T01:13:52.207Z,34.5090
2023-01-04T01:14:03.336Z,34.5670
2023-01-04T01:14:14.383Z,34.5830
2023-01-04T01:14:25.463Z,34.5090
2023-01-04T01:14:36.616Z,34.4700
2023-01-04T01:14:47.727Z,34.3910
2023-01-04T01:15:00.717Z,34.3050
2023-01-04T01:15:12.186Z,34.3910
2023-01-04T01:15:23.321Z,34.4390
2023-01-04T01:15:34.430Z,34.5150
2023-01-04T01:15:45.522Z,34.4560
2023-01-04T01:15:56.709Z,34.4170
2023-01-04T01:16:07.995Z,34.4170
2023-01-04T01:16:37.960Z,34.4060
2023-01-04T01:16:55.877Z,34.7050
2023-01-04T01:17:08.065Z,34.6000
2023-01-04T01:17:19.202Z,34.4300
2023-01-04T01:17:30.358Z,34.4260
2023-01-04T01:17:41.568Z,34.4940
2023-01-04T01:17:52.776Z,34.4610
2023-01-04T01:18:03.968Z,34.4200
2023-01-04T01:18:15.175Z,34.4170
2023-01-04T01:18:26.359Z,34.3930
2023-01-04T01:18:37.576Z,34.4560
2023-01-04T01:18:48.640Z,34.4730
2023-01-04T01:18:59.714Z,34.4390
2023-01-04T01:19:10.851Z,34.3870
2023-01-04T01:19:22.054Z,34.3760
2023-01-04T01:19:33.262Z,34.3710
2023-01-04T01:19:44.457Z,34.3930
2023-01-04T01:19:55.538Z,34.3210
2023-01-04T01:20:06.597Z,34.3020
2023-01-04T01:20:17.730Z,34.2630
2023-01-04T01:20:28.933Z,34.2740
2023-01-04T01:20:40.120Z,34.2910
2023-01-04T01:20:51.334Z,34.3150
2023-01-04T01:21:02.533Z,34.3370
2023-01-04T01:21:13.743Z,34.3820
2023-01-04T01:21:24.801Z,34.3480
2023-01-04T01:21:35.891Z,34.3080
2023-01-04T01:21:47.012Z,34.2690
2023-01-04T01:21:58.453Z,34.2170
2023-01-04T01:22:09.788Z,34.2170
2023-01-04T01:22:20.932Z,34.2300
2023-01-04T01:22:32.119Z,34.2010
2023-01-04T01:22:43.175Z,34.1210
2023-01-04T01:22:54.266Z,34.1320
2023-01-04T01:23:05.319Z,34.1160
2023-01-04T01:23:16.383Z,34.1620
2023-01-04T01:23:27.483Z,34.1670
2023-01-04T01:23:38.559Z,34.2120
2023-01-04T01:23:49.620Z,34.2300
2023-01-04T01:24:00.769Z,34.2170
2023-01-04T01:24:11.839Z,34.2300
2023-01-04T01:24:22.931Z,34.2120
2023-01-04T01:24:34.048Z,34.2010
2023-01-04T01:24:45.239Z,34.1210
2023-01-04T01:24:56.491Z,34.1500
2023-01-04T01:25:07.648Z,34.2120
2023-01-04T01:25:18.679Z,34.2740
2023-01-04T01:25:29.734Z,34.2800
2023-01-04T01:25:40.940Z,34.2740
2023-01-04T01:25:52.114Z,34.2630
2023-01-04T01:26:03.375Z,34.3430
2023-01-04T01:26:14.519Z,34.2800
2023-01-04T01:26:25.730Z,34.3080
2023-01-04T01:26:36.800Z,34.3760
2023-01-04T01:26:47.860Z,34.4450
2023-01-04T01:26:59.009Z,34.3650
2023-01-04T01:27:10.067Z,34.3260
2023-01-04T01:27:21.140Z,34.3480
2023-01-04T01:27:32.205Z,34.3760
2023-01-04T01:27:43.283Z,34.3820
2023-01-04T01:27:54.360Z,34.3320
2023-01-04T01:28:05.569Z,34.2860
2023-01-04T01:28:16.778Z,34.3370
2023-01-04T01:28:27.959Z,34.3980
2023-01-04T01:28:39.026Z,34.3750
2023-01-04T01:28:50.122Z,34.3700
2023-01-04T01:29:01.158Z,34.4090
2023-01-04T01:29:12.236Z,34.3750
2023-01-04T01:29:23.339Z,34.3260
2023-01-04T01:29:34.519Z,34.3430
2023-01-04T01:29:45.559Z,34.3760
2023-01-04T01:29:56.660Z,34.3210
2023-01-04T01:30:07.813Z,34.3080
2023-01-04T01:30:19.025Z,34.2800
2023-01-04T01:30:30.219Z,34.2170
2023-01-04T01:30:41.657Z,34.1840
2023-01-04T01:30:53.059Z,34.1840
2023-01-04T01:31:08.489Z,34.2060
2023-01-04T01:31:21.185Z,34.3300
2023-01-04T01:31:32.321Z,34.2680
2023-01-04T01:31:43.421Z,34.1540
2023-01-04T01:31:54.687Z,34.0310
2023-01-04T01:32:05.888Z,33.9970
2023-01-04T01:32:17.084Z,33.9860
2023-01-04T01:32:28.294Z,33.9750
2023-01-04T01:32:39.479Z,34.0250
2023-01-04T01:32:50.698Z,34.0710
2023-01-04T01:33:01.881Z,34.0600
2023-01-04T01:33:13.095Z,34.0140
2023-01-04T01:33:24.279Z,34.1270
2023-01-04T01:33:35.559Z,34.1780
2023-01-04T01:33:46.565Z,34.1730
2023-01-04T01:33:57.620Z,34.1450
2023-01-04T01:34:08.763Z,34.1560
2023-01-04T01:34:19.962Z,34.1450
2023-01-04T01:34:31.025Z,34.1320
2023-01-04T01:34:42.088Z,34.0930
2023-01-04T01:34:53.113Z,34.0140
2023-01-04T01:35:04.247Z,34.0310
2023-01-04T01:35:15.320Z,34.0770
2023-01-04T01:35:26.534Z,34.0880
2023-01-04T01:35:37.723Z,34.1320
2023-01-04T01:35:48.934Z,34.1320
2023-01-04T01:36:00.128Z,34.1160
2023-01-04T01:36:11.352Z,34.1560
2023-01-04T01:36:22.398Z,34.1940
2023-01-04T01:36:33.461Z,34.2170
2023-01-04T01:36:44.639Z,34.2010
2023-01-04T01:36:55.683Z,34.2300
2023-01-04T01:37:06.784Z,34.2010
2023-01-04T01:37:17.890Z,34.2690
2023-01-04T01:37:29.115Z,34.2630
2023-01-04T01:37:40.299Z,34.2410
2023-01-04T01:37:51.495Z,34.2690
2023-01-04T01:38:02.563Z,34.2230
2023-01-04T01:38:13.684Z,34.1730
2023-01-04T01:38:24.782Z,34.1100
2023-01-04T01:38:35.845Z,34.0600
2023-01-04T01:38:46.926Z,34.0470
2023-01-04T01:38:58.055Z,34.0650
2023-01-04T01:39:09.124Z,34.0530
2023-01-04T01:39:20.195Z,34.0990
2023-01-04T01:39:31.323Z,34.1780
2023-01-04T01:39:42.538Z,34.2470
2023-01-04T01:39:53.611Z,34.1780
2023-01-04T01:40:04.696Z,34.0930
2023-01-04T01:40:15.763Z,34.1040
2023-01-04T01:40:26.829Z,34.0930
2023-01-04T01:40:37.883Z,34.0600
2023-01-04T01:40:49.108Z,34.0710
2023-01-04T01:41:00.287Z,34.1450
2023-01-04T01:41:11.505Z,34.2170
2023-01-04T01:41:22.586Z,34.2690
2023-01-04T01:41:33.650Z,34.2470
2023-01-04T01:41:44.756Z,34.1890
2023-01-04T01:41:55.990Z,34.1370
2023-01-04T01:42:07.155Z,34.1370
2023-01-04T01:42:18.373Z,34.0850
2023-01-04T01:42:29.435Z,34.1040
2023-01-04T01:42:40.505Z,34.1430
2023-01-04T01:42:51.568Z,34.1760
2023-01-04T01:43:02.652Z,34.2000
2023-01-04T01:43:13.718Z,34.1760
2023-01-04T01:43:24.762Z,34.1700
2023-01-04T01:43:35.838Z,34.1480
2023-01-04T01:43:46.999Z,34.1090
2023-01-04T01:43:58.210Z,34.0350
2023-01-04T01:44:09.404Z,34.0740
2023-01-04T01:44:20.455Z,34.0850
2023-01-04T01:44:31.530Z,33.9730
2023-01-04T01:44:42.604Z,33.9280
2023-01-04T01:44:53.695Z,33.9780
2023-01-04T01:45:05.024Z,33.9450
2023-01-04T01:45:16.168Z,33.8990
2023-01-04T01:45:27.270Z,33.8770
2023-01-04T01:45:38.382Z,33.8880
2023-01-04T01:45:49.567Z,33.9050
2023-01-04T01:46:00.871Z,33.8930
2023-01-04T01:46:12.017Z,33.9670
2023-01-04T01:46:23.248Z,34.0190
2023-01-04T01:46:34.425Z,34.0520
2023-01-04T01:46:45.536Z,34.0800
2023-01-04T01:46:56.887Z,34.0410
2023-01-04T01:47:08.015Z,34.0980
2023-01-04T01:47:19.167Z,34.0580
2023-01-04T01:47:30.247Z,33.9670
2023-01-04T01:47:41.314Z,34.0000
2023-01-04T01:47:52.365Z,33.9840
2023-01-04T01:48:03.419Z,33.8990
2023-01-04T01:48:14.537Z,33.9560
2023-01-04T01:48:25.729Z,34.0580
2023-01-04T01:48:36.933Z,34.0690
2023-01-04T01:48:47.993Z,34.0520
2023-01-04T01:48:59.057Z,34.0240
2023-01-04T01:49:10.214Z,34.0060
2023-01-04T01:49:21.406Z,34.0410
2023-01-04T01:49:32.620Z,34.1040
2023-01-04T01:49:43.825Z,34.0630
2023-01-04T01:49:55.011Z,34.0190
2023-01-04T01:50:06.255Z,34.1040
2023-01-04T01:50:17.410Z,34.1200
2023-01-04T01:50:28.464Z,34.0980
2023-01-04T01:50:39.529Z,34.0460
2023-01-04T01:50:50.712Z,34.0740
2023-01-04T01:51:01.877Z,34.0300
2023-01-04T01:51:13.082Z,33.9890
2023-01-04T01:51:24.284Z,34.0130
2023-01-04T01:51:35.334Z,34.0690
2023-01-04T01:51:46.426Z,34.0820
2023-01-04T01:51:57.578Z,34.0820
2023-01-04T01:52:08.653Z,33.9680
2023-01-04T01:52:19.744Z,33.8900
2023-01-04T01:52:30.849Z,33.9620
2023-01-04T01:52:42.054Z,34.0990
2023-01-04T01:52:53.241Z,34.1590
2023-01-04T01:53:04.453Z,34.1260
2023-01-04T01:53:15.525Z,34.0300
2023-01-04T01:53:26.620Z,34.0580
2023-01-04T01:53:37.772Z,34.1040
2023-01-04T01:53:48.884Z,34.0910
2023-01-04T01:54:00.151Z,34.0000
2023-01-04T01:54:11.334Z,33.9730
2023-01-04T01:54:22.522Z,34.0060
2023-01-04T01:54:33.734Z,33.9890
2023-01-04T01:54:44.925Z,34.0350
2023-01-04T01:54:56.137Z,33.9950
2023-01-04T01:55:07.355Z,33.9340
2023-01-04T01:55:18.410Z,33.9500
2023-01-04T01:55:29.483Z,34.0320
2023-01-04T01:55:40.617Z,34.0430
2023-01-04T01:55:51.791Z,33.9990
2023-01-04T01:56:03.017Z,33.9650
2023-01-04T01:56:14.198Z,34.0160
2023-01-04T01:56:25.423Z,33.9820
2023-01-04T01:56:36.606Z,34.0160
2023-01-04T01:56:47.802Z,34.0190
2023-01-04T01:56:59.003Z,34.0460
2023-01-04T01:57:10.200Z,34.0000
2023-01-04T01:57:21.248Z,33.9500
2023-01-04T01:57:32.336Z,33.9390
2023-01-04T01:57:43.498Z,33.9780
2023-01-04T01:57:54.547Z,33.9780
2023-01-04T01:58:05.620Z,34.0130
2023-01-04T01:58:16.787Z,33.9610
2023-01-04T01:58:27.834Z,33.9160
2023-01-04T01:58:38.912Z,33.8930
2023-01-04T01:58:50.094Z,33.8600
2023-01-04T01:59:01.141Z,33.8540
2023-01-04T01:59:12.214Z,33.8310
2023-01-04T01:59:23.324Z,33.8360
2023-01-04T01:59:34.406Z,33.8820
2023-01-04T01:59:45.462Z,33.8960
2023-01-04T01:59:56.609Z,33.8610
2023-01-04T02:00:07.840Z,33.8900
2023-01-04T02:00:19.003Z,33.9290
2023-01-04T02:00:30.229Z,33.9350
2023-01-04T02:00:41.277Z,33.9400
2023-01-04T02:00:52.348Z,33.9400
2023-01-04T02:01:03.480Z,33.9290
2023-01-04T02:01:14.896Z,33.9400
2023-01-04T02:01:26.376Z,33.9860
2023-01-04T02:01:37.619Z,33.9970
2023-01-04T02:01:48.811Z,34.0140
2023-01-04T02:02:00.329Z,33.9680
2023-01-04T02:02:11.788Z,33.9970
2023-01-04T02:02:23.118Z,33.9970
2023-01-04T02:02:34.589Z,33.9970
2023-01-04T02:02:46.097Z,34.0470
2023-01-04T02:02:57.635Z,34.0420
2023-01-04T02:03:09.122Z,34.0140
2023-01-04T02:03:20.432Z,34.0530
2023-01-04T02:03:31.783Z,34.0770
2023-01-04T02:03:42.975Z,34.0820
2023-01-04T02:03:54.099Z,34.0030
2023-01-04T02:04:05.341Z,33.9010
2023-01-04T02:04:16.550Z,33.9460
2023-01-04T02:04:27.678Z,33.9680
2023-01-04T02:04:38.847Z,33.9860
2023-01-04T02:04:50.062Z,33.9800
2023-01-04T02:05:01.264Z,33.9800
2023-01-04T02:05:12.484Z,34.0880
2023-01-04T02:05:23.532Z,34.1540
2023-01-04T02:05:34.615Z,34.1650
2023-01-04T02:05:45.720Z,34.1200
2023-01-04T02:05:56.929Z,34.1200
2023-01-04T02:06:08.137Z,34.2170
2023-01-04T02:06:19.218Z,34.1370
2023-01-04T02:06:30.280Z,33.9730
2023-01-04T02:06:41.330Z,34.0000
2023-01-04T02:06:52.392Z,34.0890
2023-01-04T02:07:03.493Z,34.0320
2023-01-04T02:07:14.694Z,34.0160
2023-01-04T02:07:25.757Z,33.9710
2023-01-04T02:07:36.810Z,33.9420
2023-01-04T02:07:47.969Z,33.8920
2023-01-04T02:07:59.175Z,33.9140
2023-01-04T02:08:10.359Z,33.9470
2023-01-04T02:08:21.584Z,33.9470
2023-01-04T02:08:32.635Z,33.9140
2023-01-04T02:08:43.726Z,33.9310
2023-01-04T02:08:54.833Z,33.9470
2023-01-04T02:09:06.060Z,33.8470
2023-01-04T02:09:17.240Z,33.8190
2023-01-04T02:09:28.447Z,33.7740
2023-01-04T02:09:39.638Z,33.7390
2023-01-04T02:09:50.862Z,33.7230
2023-01-04T02:10:02.031Z,33.7620
2023-01-04T02:10:13.373Z,33.8080
2023-01-04T02:10:24.449Z,33.8190
2023-01-04T02:10:35.507Z,33.8300
2023-01-04T02:10:46.544Z,33.8930
2023-01-04T02:10:57.734Z,33.9150
2023-01-04T02:11:08.914Z,33.9440
2023-01-04T02:11:20.145Z,33.9200
2023-01-04T02:11:31.320Z,33.8520
2023-01-04T02:11:42.539Z,33.8290
2023-01-04T02:11:53.604Z,33.8070
2023-01-04T02:12:04.680Z,33.8290
2023-01-04T02:12:15.811Z,33.8230
2023-01-04T02:12:27.049Z,33.7830
2023-01-04T02:12:38.082Z,33.8920
2023-01-04T02:12:49.145Z,33.9600
2023-01-04T02:13:00.276Z,33.9880
2023-01-04T02:13:11.494Z,33.9650
2023-01-04T02:13:22.681Z,33.9030
2023-01-04T02:13:33.899Z,33.9250
2023-01-04T02:13:44.960Z,33.8970
2023-01-04T02:13:56.021Z,33.9600
2023-01-04T02:14:07.169Z,33.9880
2023-01-04T02:14:18.379Z,33.8860
2023-01-04T02:14:29.559Z,33.8400
2023-01-04T02:14:40.790Z,33.8120
2023-01-04T02:14:51.980Z,33.8070
2023-01-04T02:15:03.171Z,33.7900
2023-01-04T02:15:14.410Z,33.8180
2023-01-04T02:15:25.576Z,33.7900
2023-01-04T02:15:36.864Z,33.6930
2023-01-04T02:15:47.955Z,33.7110
2023-01-04T02:15:59.249Z,33.7390
2023-01-04T02:16:10.427Z,33.7750
2023-01-04T02:16:21.662Z,33.7640
2023-01-04T02:16:32.867Z,33.7510